This is the latest recevied weather packets stored in our database for station/object WH6VH. If no packets are shown the sender has not sent any weather packets the latest 10 day(s).
| Time | Temp. | Humidity | Pressure | Rain* | Wind** | Luminosity | Snow |
|---|---|---|---|---|---|---|---|
| 1777823703 | 17.78° C | 24% | 1013.6 hPa | 0 mm | - | - | - |
| 1777823404 | 17.78° C | 25% | 1013.6 hPa | 0 mm | - | - | - |
| 1777821903 | 17.22° C | 28% | 1013.6 hPa | 0 mm | - | - | - |
| 1777821604 | 16.67° C | 27% | 1013.7 hPa | 0 mm | - | - | - |
| 1777819503 | 15.56° C | 31% | 1014.2 hPa | 0 mm | - | - | - |
| 1777818604 | 13.89° C | 34% | 1014.3 hPa | 0 mm | - | - | - |
| 1777815903 | 11.11° C | 38% | 1014.5 hPa | 0 mm | - | - | - |
| 1777808404 | 8.89° C | 40% | 1013.9 hPa | 0 mm | - | - | - |
| 1777806904 | 9.44° C | 39% | 1013.9 hPa | 0 mm | - | - | - |
| 1777805704 | 9.44° C | 38% | 1013.8 hPa | 0 mm | - | - | - |
| 1777803304 | 8.89° C | 39% | 1014.2 hPa | 0 mm | - | - | - |
| 1777802704 | 9.44° C | 38% | 1014.3 hPa | 0 mm | - | - | - |
| 1777800905 | 9.44° C | 37% | 1014.5 hPa | 0 mm | - | - | - |
| 1777800004 | 9.44° C | 36% | 1014.6 hPa | 0 mm | - | - | - |
| 1777797305 | 10° C | 33% | 1014.5 hPa | 0 mm | - | - | - |
| 1777796704 | 10.56° C | 33% | 1014.6 hPa | 0 mm | - | - | - |
| 1777795804 | 11.11° C | 32% | 1014.8 hPa | 0 mm | - | - | - |
| 1777793403 | 11.67° C | 32% | 1015.3 hPa | 0 mm | - | - | - |
| 1777790703 | 12.22° C | 30% | 1015.5 hPa | 0 mm | - | - | - |
| 1777785304 | 13.33° C | 26% | 1015.4 hPa | 0 mm | - | - | - |
| 1777785004 | 13.33° C | 26% | 1015.5 hPa | 0 mm | - | - | - |
| 1777780204 | 14.44° C | 24% | 1015.8 hPa | 0 mm | - | - | - |
| 1777779305 | 14.44° C | 26% | 1015.8 hPa | 0 mm | - | - | - |
| 1777778104 | 15° C | 27% | 1015.7 hPa | 0 mm | - | - | - |
| 1777777504 | 15° C | 27% | 1015.7 hPa | 0 mm | - | - | - |
* Rain latest hour (hover to see other rain measurements)
** Current wind speed in m/s (hover to see current wind gust speed)